Shin Mei Maru — JG5617 — position and weather

sailwx.info

Track history (hours):
 
Tides and Currents Weather Stations Pressure Air Temp Water Temp Dewpoint Dewpoint Depression Visibility Wind Speed Wind Dir Waves Ship Positions

Shin Mei Maru

Last reported at 2016-Feb-05 11:11 UTC. Time now 2016-Feb-05 22:09 UTC.
Position N 33°59' E 134°58'.

Length 160 m; draft 6.8 m.

Type: Cargo ship. MMSI: 431100922.

Date/timePositionNaut miles runAvg speedWind from/ knotsBaromVisibWave heightAir tempDewpointWater temp
2016-Feb-05 11:11N 33°59' E 134°58'1219.6
2016-Feb-05 10:33N 34°11' E 134°58'1818.2
2016-Feb-05 09:33N 34°27' E 135°09'1615.9
2016-Feb-05 08:32N 34°37' E 135°25'0 0.1
2016-Feb-05 07:12N 34°37' E 135°25'0 0.0
2016-Feb-05 06:30N 34°37' E 135°25'0 0.0
2016-Feb-05 05:30N 34°37' E 135°25'0 0.0
2016-Feb-05 04:18N 34°37' E 135°25'0 0.0
2016-Feb-05 03:30N 34°37' E 135°25'0 0.0
2016-Feb-05 02:24N 34°37' E 135°25'0 0.0
2016-Feb-05 01:30N 34°37' E 135°25'1 0.6
2016-Feb-05 00:33N 34°37' E 135°24'1616.2
2016-Feb-04 23:33N 34°27' E 135°09'1716.7
2016-Feb-04 22:33N 34°12' E 134°59'23413.7
2016-Feb-04 05:28N 35°02' E 139°37'1516.1
2016-Feb-04 04:33N 35°15' E 139°46'1313.0
2016-Feb-04 03:34N 35°28' E 139°48'1010.3
2016-Feb-04 02:33N 35°38' E 139°46'0 0.0
2016-Feb-04 01:32N 35°38' E 139°46'0 0.0
2016-Feb-04 00:32N 35°38' E 139°46'0 0.0
2016-Feb-03 23:29N 35°38' E 139°46'0 0.0
2016-Feb-03 22:32N 35°38' E 139°46'6 5.8
2016-Feb-03 21:33N 35°34' E 139°50'1414.3
2016-Feb-03 20:34N 35°20' E 139°44'1312.7
2016-Feb-03 19:34N 35°07' E 139°47'1616.0
2016-Feb-03 18:33N 34°51' E 139°48'1817.7
2016-Feb-03 17:34N 34°57' E 140°09'1817.8
2016-Feb-03 16:32N 35°06' E 140°28'1817.3
2016-Feb-03 15:32N 35°20' E 140°41'1717.1
2016-Feb-03 14:33N 35°34' E 140°52'  
2016-Jan-31 00:23N 35°43' E 140°58'1618.7
2016-Jan-30 23:33N 35°29' E 140°49'1918.5
2016-Jan-30 22:32N 35°14' E 140°35'1818.2
2016-Jan-30 21:32N 35°02' E 140°18'1717.8
2016-Jan-30 20:34N 34°51' E 140°02'1817.8
2016-Jan-30 19:33N 34°42' E 139°43'5717.9
2016-Jan-30 16:23N 34°30' E 138°36'182 6.5
2016-Jan-29 12:32N 34°02' E 134°58'2019.5
2016-Jan-29 11:31N 34°22' E 135°00'1919.9
2016-Jan-29 10:34N 34°34' E 135°18'6 5.7
2016-Jan-29 09:30N 34°37' E 135°25'0 0.0
2016-Jan-29 08:30N 34°37' E 135°25'0 0.0
2016-Jan-29 07:30N 34°37' E 135°25'0 0.0
2016-Jan-29 06:30N 34°37' E 135°25'0 0.0
2016-Jan-29 05:30N 34°37' E 135°25'0 0.0
2016-Jan-29 04:24N 34°37' E 135°25'0 0.0
2016-Jan-29 03:24N 34°37' E 135°25'0 0.0
2016-Jan-29 02:30N 34°37' E 135°25'0 0.0
2016-Jan-29 01:33N 34°37' E 135°25'1313.0
2016-Jan-29 00:33N 34°29' E 135°12'1817.7
2016-Jan-28 23:33N 34°15' E 134°59'23315.3
2016-Jan-28 08:17N 35°02' E 139°37'1318.2
2016-Jan-28 07:33N 35°13' E 139°46'1312.9
2016-Jan-28 06:34N 35°26' E 139°45'1212.1
2016-Jan-28 05:34N 35°38' E 139°46'0 0.2
2016-Jan-28 04:28N 35°38' E 139°46'0 0.0
2016-Jan-28 03:28N 35°38' E 139°46'0 0.0
2016-Jan-28 02:31N 35°38' E 139°46'0 0.0
2016-Jan-28 01:31N 35°38' E 139°46'0 0.0
2016-Jan-28 00:25N 35°38' E 139°46'0 0.0
2016-Jan-27 23:31N 35°38' E 139°46'0 0.0
2016-Jan-27 22:28N 35°38' E 139°46'8 9.0
2016-Jan-27 21:33N 35°32' E 139°52'1514.5
2016-Jan-27 20:33N 35°18' E 139°44'1514.8
2016-Jan-27 19:33N 35°04' E 139°46'1514.2
2016-Jan-27 18:31N 34°51' E 139°54'1819.0
2016-Jan-27 17:33N 34°60' E 140°14'1918.5
2016-Jan-27 16:33N 35°11' E 140°32'1817.8
2016-Jan-27 15:33N 35°25' E 140°45'1817.8
2016-Jan-27 14:33N 35°40' E 140°56'2018.6
2016-Jan-27 13:30N 35°59' E 141°01'  
Track history (hours):
 
Tides and Currents Weather Stations Pressure Air Temp Water Temp Dewpoint Dewpoint Depression Visibility Wind Speed Wind Dir Waves Ship Positions

Shin Mei Maru

Last reported at 2016-Feb-05 11:11 UTC. Time now 2016-Feb-05 22:09 UTC.
Position N 33°59' E 134°58'.

Length 160 m; draft 6.8 m.

Type: Cargo ship. MMSI: 431100922.

Date/timePositionNaut miles runAvg speedWind from/ knotsBaromVisibWave heightAir tempDewpointWater temp
2016-Feb-05 11:11N 33°59' E 134°58'1219.6
2016-Feb-05 10:33N 34°11' E 134°58'1818.2
2016-Feb-05 09:33N 34°27' E 135°09'1615.9
2016-Feb-05 08:32N 34°37' E 135°25'0 0.1
2016-Feb-05 07:12N 34°37' E 135°25'0 0.0
2016-Feb-05 06:30N 34°37' E 135°25'0 0.0
2016-Feb-05 05:30N 34°37' E 135°25'0 0.0
2016-Feb-05 04:18N 34°37' E 135°25'0 0.0
2016-Feb-05 03:30N 34°37' E 135°25'0 0.0
2016-Feb-05 02:24N 34°37' E 135°25'0 0.0
2016-Feb-05 01:30N 34°37' E 135°25'1 0.6
2016-Feb-05 00:33N 34°37' E 135°24'1616.2
2016-Feb-04 23:33N 34°27' E 135°09'1716.7
2016-Feb-04 22:33N 34°12' E 134°59'23413.7
2016-Feb-04 05:28N 35°02' E 139°37'1516.1
2016-Feb-04 04:33N 35°15' E 139°46'1313.0
2016-Feb-04 03:34N 35°28' E 139°48'1010.3
2016-Feb-04 02:33N 35°38' E 139°46'0 0.0
2016-Feb-04 01:32N 35°38' E 139°46'0 0.0
2016-Feb-04 00:32N 35°38' E 139°46'0 0.0
2016-Feb-03 23:29N 35°38' E 139°46'0 0.0
2016-Feb-03 22:32N 35°38' E 139°46'6 5.8
2016-Feb-03 21:33N 35°34' E 139°50'1414.3
2016-Feb-03 20:34N 35°20' E 139°44'1312.7
2016-Feb-03 19:34N 35°07' E 139°47'1616.0
2016-Feb-03 18:33N 34°51' E 139°48'1817.7
2016-Feb-03 17:34N 34°57' E 140°09'1817.8
2016-Feb-03 16:32N 35°06' E 140°28'1817.3
2016-Feb-03 15:32N 35°20' E 140°41'1717.1
2016-Feb-03 14:33N 35°34' E 140°52'  
2016-Jan-31 00:23N 35°43' E 140°58'1618.7
2016-Jan-30 23:33N 35°29' E 140°49'1918.5
2016-Jan-30 22:32N 35°14' E 140°35'1818.2
2016-Jan-30 21:32N 35°02' E 140°18'1717.8
2016-Jan-30 20:34N 34°51' E 140°02'1817.8
2016-Jan-30 19:33N 34°42' E 139°43'5717.9
2016-Jan-30 16:23N 34°30' E 138°36'182 6.5
2016-Jan-29 12:32N 34°02' E 134°58'2019.5
2016-Jan-29 11:31N 34°22' E 135°00'1919.9
2016-Jan-29 10:34N 34°34' E 135°18'6 5.7
2016-Jan-29 09:30N 34°37' E 135°25'0 0.0
2016-Jan-29 08:30N 34°37' E 135°25'0 0.0
2016-Jan-29 07:30N 34°37' E 135°25'0 0.0
2016-Jan-29 06:30N 34°37' E 135°25'0 0.0
2016-Jan-29 05:30N 34°37' E 135°25'0 0.0
2016-Jan-29 04:24N 34°37' E 135°25'0 0.0
2016-Jan-29 03:24N 34°37' E 135°25'0 0.0
2016-Jan-29 02:30N 34°37' E 135°25'0 0.0
2016-Jan-29 01:33N 34°37' E 135°25'1313.0
2016-Jan-29 00:33N 34°29' E 135°12'1817.7
2016-Jan-28 23:33N 34°15' E 134°59'23315.3
2016-Jan-28 08:17N 35°02' E 139°37'1318.2
2016-Jan-28 07:33N 35°13' E 139°46'1312.9
2016-Jan-28 06:34N 35°26' E 139°45'1212.1
2016-Jan-28 05:34N 35°38' E 139°46'0 0.2
2016-Jan-28 04:28N 35°38' E 139°46'0 0.0
2016-Jan-28 03:28N 35°38' E 139°46'0 0.0
2016-Jan-28 02:31N 35°38' E 139°46'0 0.0
2016-Jan-28 01:31N 35°38' E 139°46'0 0.0
2016-Jan-28 00:25N 35°38' E 139°46'0 0.0
2016-Jan-27 23:31N 35°38' E 139°46'0 0.0
2016-Jan-27 22:28N 35°38' E 139°46'8 9.0
2016-Jan-27 21:33N 35°32' E 139°52'1514.5
2016-Jan-27 20:33N 35°18' E 139°44'1514.8
2016-Jan-27 19:33N 35°04' E 139°46'1514.2
2016-Jan-27 18:31N 34°51' E 139°54'1819.0
2016-Jan-27 17:33N 34°60' E 140°14'1918.5
2016-Jan-27 16:33N 35°11' E 140°32'1817.8
2016-Jan-27 15:33N 35°25' E 140°45'1817.8
2016-Jan-27 14:33N 35°40' E 140°56'2018.6
2016-Jan-27 13:30N 35°59' E 141°01'  

Dump ship's entire track history